Time;durP1;ratioP1;P1;durP2;ratioP2;P2;SDS_P1;SDS_P2;PMS_P1;PMS_P2;Temp;Humidity;BMP_temperature;BMP_pressure;BME280_temperature;BME280_humidity;BME280_pressure;Samples;Min_cycle;Max_cycle;Signal;HPM_P1;HPM_P2
2021/10/15 00:01:31;;;;;;;20.57;18.37;;;;;;;14.02;75.31;100892.66;5058142;28;20208;-70
2021/10/15 00:03:57;;;;;;;20.03;17.50;;;;;;;13.80;75.86;100882.22;5059671;28;20216;-71
2021/10/15 00:06:22;;;;;;;21.23;18.00;;;;;;;13.81;75.80;100895.34;5061586;28;20209;-71
2021/10/15 00:08:47;;;;;;;19.50;17.17;;;;;;;13.56;76.31;100888.38;5062127;28;20430;-69
2021/10/15 00:11:12;;;;;;;19.00;17.20;;;;;;;13.71;76.20;100877.00;5056702;28;20442;-70
2021/10/15 00:13:38;;;;;;;21.20;17.53;;;;;;;13.79;75.93;100872.63;5041414;28;20247;-69
2021/10/15 00:16:03;;;;;;;21.37;18.07;;;;;;;13.80;75.44;100867.38;5041642;28;20431;-69
2021/10/15 00:18:29;;;;;;;19.10;17.20;;;;;;;13.85;75.55;100869.13;5041135;28;20210;-70
2021/10/15 00:20:54;;;;;;;21.17;17.40;;;;;;;14.01;74.86;100868.22;5041151;28;20228;-70
2021/10/15 00:23:19;;;;;;;20.67;18.47;;;;;;;14.04;74.65;100865.56;5041530;28;20335;-70
2021/10/15 00:25:45;;;;;;;21.30;16.90;;;;;;;13.78;75.32;100863.88;5040968;28;20217;-71
2021/10/15 00:28:10;;;;;;;20.20;17.90;;;;;;;13.84;75.18;100863.00;5041299;28;20266;-71
2021/10/15 00:30:35;;;;;;;20.13;17.80;;;;;;;13.98;75.03;100855.13;5041401;28;20194;-71
2021/10/15 00:33:01;;;;;;;19.50;17.40;;;;;;;13.93;74.78;100841.16;5040992;28;20258;-71
2021/10/15 00:35:26;;;;;;;19.27;17.40;;;;;;;14.11;74.34;100846.34;5041036;28;20482;-72
2021/10/15 00:37:51;;;;;;;20.90;18.67;;;;;;;13.98;74.85;100836.78;5041190;28;20536;-71
2021/10/15 00:40:18;;;;;;;21.60;19.37;;;;;;;13.89;75.77;100835.03;5040934;28;20167;-70
2021/10/15 00:42:43;;;;;;;23.33;20.87;;;;;;;14.01;75.62;100835.88;5040934;28;20443;-72
2021/10/15 00:45:09;;;;;;;22.33;20.03;;;;;;;14.18;74.73;100835.81;5041081;28;20456;-71
2021/10/15 00:47:34;;;;;;;22.90;20.23;;;;;;;13.77;76.18;100829.81;5040983;28;20261;-71
2021/10/15 00:49:59;;;;;;;21.43;19.07;;;;;;;13.93;75.42;100822.81;5040808;28;20201;-71
2021/10/15 00:52:27;;;;;;;22.60;20.40;;;;;;;13.88;75.67;100819.31;5040437;28;20312;-73
2021/10/15 00:54:52;;;;;;;23.97;21.40;;;;;;;13.96;75.18;100817.53;5040680;28;20186;-75
2021/10/15 00:57:17;;;;;;;23.70;20.40;;;;;;;13.87;75.92;100812.31;5040971;28;20420;-74
2021/10/15 00:59:43;;;;;;;19.33;17.43;;;;;;;14.59;73.74;100806.78;5060190;28;20189;-62
2021/10/15 01:02:08;;;;;;;21.60;19.53;;;;;;;14.86;73.12;100796.16;5060271;28;20208;-63
2021/10/15 01:04:35;;;;;;;20.57;18.57;;;;;;;14.90;72.24;100793.47;5060587;28;20427;-62
2021/10/15 01:07:01;;;;;;;23.37;20.77;;;;;;;14.72;71.96;100789.25;5060260;28;20266;-66
2021/10/15 01:09:26;;;;;;;23.37;20.77;;;;;;;14.53;72.99;100791.09;5042915;28;20470;-66
2021/10/15 01:11:52;;;;;;;23.17;21.07;;;;;;;14.19;74.82;100795.63;5043307;28;20264;-65
2021/10/15 01:14:18;;;;;;;23.00;20.80;;;;;;;14.43;73.77;100778.88;5041920;28;20404;-66
2021/10/15 01:16:44;;;;;;;25.13;22.60;;;;;;;14.26;74.31;100781.59;5059756;28;20197;-66
2021/10/15 01:19:10;;;;;;;26.27;23.67;;;;;;;14.20;74.79;100781.63;5060465;28;20456;-66
2021/10/15 01:21:36;;;;;;;25.60;22.10;;;;;;;13.89;75.65;100772.13;5059844;28;20428;-66
2021/10/15 01:24:01;;;;;;;27.30;24.57;;;;;;;14.00;75.36;100769.47;5059984;28;20449;-65
2021/10/15 01:26:27;;;;;;;26.10;23.47;;;;;;;14.11;74.84;100769.44;5043242;28;20484;-66
2021/10/15 01:28:53;;;;;;;28.53;25.47;;;;;;;14.05;75.86;100772.94;5060137;28;20186;-69
2021/10/15 01:31:19;;;;;;;28.53;25.83;;;;;;;14.01;75.95;100759.88;5065158;28;20430;-66
2021/10/15 01:33:44;;;;;;;27.47;24.87;;;;;;;14.03;75.58;100756.38;5065806;28;20443;-68
2021/10/15 01:36:09;;;;;;;29.23;25.40;;;;;;;14.14;75.80;100751.94;5061356;28;20412;-67
2021/10/15 01:38:35;;;;;;;28.10;25.30;;;;;;;14.06;75.41;100748.50;5060030;28;20209;-66
2021/10/15 01:41:00;;;;;;;29.33;26.53;;;;;;;14.05;75.97;100741.50;5060155;28;20178;-65
2021/10/15 01:43:28;;;;;;;28.47;25.57;;;;;;;13.66;76.99;100732.91;5059910;28;20186;-65
2021/10/15 01:45:54;;;;;;;29.43;26.27;;;;;;;14.02;75.67;100728.41;5059644;28;20604;-66
2021/10/15 01:48:20;;;;;;;27.90;25.00;;;;;;;13.68;76.81;100725.94;5060101;28;20398;-66
2021/10/15 01:50:46;;;;;;;27.03;23.47;;;;;;;14.03;76.24;100717.06;5059434;28;20789;-66
2021/10/15 01:53:11;;;;;;;27.70;24.80;;;;;;;13.86;76.60;100719.75;5059287;28;20591;-66
2021/10/15 01:55:37;;;;;;;26.20;23.67;;;;;;;13.85;76.12;100711.91;5060143;28;20166;-66
2021/10/15 01:58:02;;;;;;;26.60;23.93;;;;;;;14.10;75.45;100708.28;5042358;28;20178;-66
2021/10/15 02:00:28;;;;;;;28.33;25.40;;;;;;;14.15;75.01;100696.00;5059378;28;20446;-66
2021/10/15 02:02:53;;;;;;;29.07;25.90;;;;;;;14.07;75.54;100691.69;5060318;28;20197;-65
2021/10/15 02:05:19;;;;;;;28.10;25.20;;;;;;;13.97;76.06;100678.63;5059423;28;20232;-66
2021/10/15 02:07:45;;;;;;;27.80;24.73;;;;;;;14.24;75.07;100673.22;5059334;28;20209;-66
2021/10/15 02:10:12;;;;;;;27.30;24.37;;;;;;;14.15;74.72;100684.63;5059776;28;20174;-66
2021/10/15 02:12:38;;;;;;;28.90;25.90;;;;;;;13.81;75.56;100677.84;5059197;28;20728;-66
2021/10/15 02:15:04;;;;;;;28.30;24.20;;;;;;;14.20;74.37;100661.03;5041632;28;20417;-66
2021/10/15 02:17:30;;;;;;;27.60;24.70;;;;;;;14.02;74.77;100662.88;5059662;28;20645;-66
2021/10/15 02:19:55;;;;;;;27.73;24.60;;;;;;;13.98;74.91;100659.41;5059018;28;20398;-66
2021/10/15 02:22:20;;;;;;;27.53;24.60;;;;;;;13.70;75.97;100656.03;5058899;28;20275;-65
2021/10/15 02:24:46;;;;;;;26.47;23.70;;;;;;;14.13;74.41;100634.84;5059470;28;20247;-67
2021/10/15 02:27:11;;;;;;;26.40;22.50;;;;;;;13.81;75.22;100641.16;5058652;28;20428;-66
2021/10/15 02:29:36;;;;;;;25.03;22.53;;;;;;;13.51;76.11;100631.69;5059644;28;20539;-67
2021/10/15 02:32:02;;;;;;;26.57;22.80;;;;;;;13.78;74.97;100641.16;5059883;28;20542;-66
2021/10/15 02:34:27;;;;;;;26.80;23.87;;;;;;;13.90;74.38;100627.13;5059060;28;20178;-66
2021/10/15 02:36:52;;;;;;;25.63;22.50;;;;;;;13.98;74.07;100629.72;5058749;28;20287;-65
2021/10/15 02:39:18;;;;;;;22.07;20.00;;;;;;;13.90;74.75;100631.50;5059068;28;20200;-67
2021/10/15 02:41:43;;;;;;;23.93;21.57;;;;;;;13.88;74.70;100626.28;5058382;28;20543;-66
2021/10/15 02:44:11;;;;;;;22.17;19.87;;;;;;;14.09;73.40;100614.78;5058532;28;20201;-65
2021/10/15 02:46:37;;;;;;;22.07;19.70;;;;;;;13.91;74.05;100604.41;5058827;28;20166;-65
2021/10/15 02:49:03;;;;;;;22.93;20.63;;;;;;;14.01;73.50;100600.84;5058464;28;20422;-65
2021/10/15 02:51:28;;;;;;;21.53;19.30;;;;;;;13.87;73.29;100600.06;5058236;28;20442;-65
2021/10/15 02:53:53;;;;;;;21.70;19.40;;;;;;;14.19;72.98;100602.47;5058830;28;20382;-65
2021/10/15 02:56:19;;;;;;;21.73;19.47;;;;;;;13.99;73.87;100597.38;5041053;28;20169;-66
2021/10/15 02:58:44;;;;;;;22.63;19.67;;;;;;;13.98;73.50;100590.41;5058351;28;20173;-67
2021/10/15 03:01:09;;;;;;;20.67;18.67;;;;;;;14.22;72.55;100591.09;5058596;28;20169;-66
2021/10/15 03:03:35;;;;;;;22.23;20.00;;;;;;;13.77;73.83;100576.56;5058148;28;20204;-66
2021/10/15 03:06:00;;;;;;;21.23;19.13;;;;;;;13.84;74.00;100579.13;5058313;28;20209;-68
2021/10/15 03:08:26;;;;;;;22.17;19.87;;;;;;;13.75;74.08;100575.69;5041457;28;20169;-66
2021/10/15 03:10:51;;;;;;;22.03;19.73;;;;;;;14.09;73.04;100575.44;5058167;28;20181;-66
2021/10/15 03:13:17;;;;;;;23.67;19.83;;;;;;;14.07;73.31;100581.59;5058259;28;20170;-66
2021/10/15 03:15:42;;;;;;;26.27;21.53;;;;;;;13.96;73.57;100568.56;5058470;28;20235;-67
2021/10/15 03:18:07;;;;;;;23.53;21.03;;;;;;;13.66;75.16;100569.63;5058250;28;20173;-66
2021/10/15 03:20:35;;;;;;;25.40;22.83;;;;;;;13.93;74.04;100563.34;5058186;28;20209;-67
2021/10/15 03:23:01;;;;;;;22.50;20.40;;;;;;;13.86;74.17;100559.03;5058712;28;20565;-66
2021/10/15 03:25:26;;;;;;;23.33;20.77;;;;;;;14.09;73.77;100559.72;5058027;28;20455;-66
2021/10/15 03:27:51;;;;;;;22.17;19.90;;;;;;;13.72;74.79;100552.13;5040694;28;20541;-65
2021/10/15 03:30:16;;;;;;;23.27;20.90;;;;;;;13.90;74.22;100547.66;5058782;28;20260;-66
2021/10/15 03:32:42;;;;;;;24.23;20.93;;;;;;;13.71;75.24;100547.75;5058097;28;20300;-66
2021/10/15 03:35:08;;;;;;;25.33;22.80;;;;;;;13.69;75.31;100548.66;5058272;28;20500;-66
2021/10/15 03:37:33;;;;;;;22.27;20.07;;;;;;;13.44;76.34;100548.81;5041329;28;20161;-66
2021/10/15 03:39:58;;;;;;;25.73;23.23;;;;;;;13.54;75.81;100544.38;5062055;28;20193;-66
2021/10/15 03:42:24;;;;;;;24.80;22.20;;;;;;;13.93;74.73;100543.22;5061939;28;20189;-66
2021/10/15 03:44:49;;;;;;;23.43;20.90;;;;;;;13.94;74.68;100536.25;5062449;28;20204;-67
2021/10/15 03:47:14;;;;;;;24.47;22.07;;;;;;;13.77;75.27;100537.25;5062093;28;20174;-66
2021/10/15 03:49:39;;;;;;;23.20;20.80;;;;;;;13.76;75.34;100532.00;5062039;28;20184;-66
2021/10/15 03:52:05;;;;;;;23.23;20.73;;;;;;;13.87;74.71;100526.69;5061700;28;20236;-65
2021/10/15 03:54:31;;;;;;;27.00;20.60;;;;;;;14.07;74.14;100529.16;5061888;28;20177;-66
2021/10/15 03:56:56;;;;;;;23.20;20.80;;;;;;;13.79;74.63;100522.38;5062013;28;20201;-66
2021/10/15 03:59:22;;;;;;;22.00;19.50;;;;;;;14.02;73.79;100518.72;5061746;28;20410;-66
2021/10/15 04:01:47;;;;;;;25.50;20.77;;;;;;;13.72;74.76;100512.84;5061454;28;20174;-66
2021/10/15 04:04:12;;;;;;;24.33;20.20;;;;;;;13.65;74.84;100513.72;5061876;28;20620;-66
2021/10/15 04:06:38;;;;;;;24.37;19.00;;;;;;;13.76;74.46;100504.06;5061621;28;20214;-66
2021/10/15 04:09:04;;;;;;;20.00;17.90;;;;;;;13.83;73.81;100502.28;5061667;28;20232;-68
2021/10/15 04:11:29;;;;;;;22.47;20.10;;;;;;;13.76;74.47;100504.06;5044960;28;20173;-68
2021/10/15 04:13:55;;;;;;;20.63;18.43;;;;;;;13.98;73.33;100504.75;5061776;28;20165;-67
2021/10/15 04:16:20;;;;;;;21.53;18.80;;;;;;;13.66;73.58;100499.75;5062883;28;20183;-66
2021/10/15 04:18:45;;;;;;;20.77;18.10;;;;;;;13.79;73.28;100495.31;5061989;28;20165;-66
2021/10/15 04:21:10;;;;;;;20.43;18.27;;;;;;;13.96;73.22;100495.16;5061186;28;20188;-66
2021/10/15 04:23:36;;;;;;;18.30;16.40;;;;;;;13.85;73.02;100479.53;5061451;28;20165;-66
2021/10/15 04:26:01;;;;;;;18.43;16.53;;;;;;;13.76;73.37;100493.59;5061837;28;20240;-66
2021/10/15 04:28:26;;;;;;;19.23;16.07;;;;;;;13.88;72.99;100481.25;5061157;28;20501;-66
2021/10/15 04:30:52;;;;;;;17.53;15.60;;;;;;;13.46;74.13;100485.06;5061101;28;20539;-66
2021/10/15 04:33:17;;;;;;;19.90;17.23;;;;;;;13.96;72.44;100476.81;5061659;28;20200;-66
2021/10/15 04:35:42;;;;;;;17.93;16.20;;;;;;;13.57;73.43;100461.44;5061158;28;20472;-65
2021/10/15 04:38:08;;;;;;;19.00;17.10;;;;;;;13.48;74.76;100478.06;5061445;28;20173;-66
2021/10/15 04:40:33;;;;;;;19.17;17.17;;;;;;;13.61;74.02;100464.88;5061317;28;20196;-65
2021/10/15 04:42:58;;;;;;;20.80;16.40;;;;;;;13.79;73.38;100467.34;5061206;28;20177;-65
2021/10/15 04:45:24;;;;;;;18.67;16.50;;;;;;;13.22;74.95;100464.22;5029417;28;20212;-65
2021/10/15 04:47:49;;;;;;;17.40;15.57;;;;;;;13.42;74.36;100467.63;5061556;28;20449;-65
2021/10/15 04:50:14;;;;;;;19.37;16.50;;;;;;;13.56;74.14;100448.34;5060523;28;20589;-64
2021/10/15 04:52:40;;;;;;;18.67;16.67;;;;;;;13.54;73.93;100450.09;5060610;28;20229;-66
2021/10/15 04:55:06;;;;;;;21.70;17.83;;;;;;;13.40;74.21;100452.81;5061341;28;20162;-67
2021/10/15 04:57:31;;;;;;;18.80;16.97;;;;;;;13.87;73.07;100443.72;5060537;28;20174;-66
2021/10/15 04:59:56;;;;;;;17.73;15.80;;;;;;;13.64;73.87;100441.28;5060644;28;20467;-66
2021/10/15 05:02:22;;;;;;;18.27;16.37;;;;;;;13.56;73.99;100437.88;5060783;28;20162;-66
2021/10/15 05:04:47;;;;;;;19.07;17.20;;;;;;;13.99;72.47;100440.13;5060421;28;20201;-66
2021/10/15 05:07:12;;;;;;;20.73;17.87;;;;;;;13.63;73.62;100437.78;5060434;28;20184;-66
2021/10/15 05:09:38;;;;;;;21.97;18.13;;;;;;;13.69;74.10;100415.06;5060834;28;20165;-66
2021/10/15 05:12:06;;;;;;;20.13;18.13;;;;;;;13.66;74.03;100423.81;5060289;28;20185;-66
2021/10/15 05:14:32;;;;;;;18.97;16.80;;;;;;;14.00;73.18;100420.03;5060209;28;20465;-66
2021/10/15 05:16:58;;;;;;;19.93;18.00;;;;;;;13.72;74.57;100417.63;5060969;28;20733;-66
2021/10/15 05:19:24;;;;;;;21.13;18.90;;;;;;;13.75;74.82;100413.25;5060119;28;20423;-67
2021/10/15 05:21:50;;;;;;;24.70;20.13;;;;;;;13.41;75.63;100410.91;5060017;28;20466;-66
2021/10/15 05:24:15;;;;;;;22.90;20.53;;;;;;;13.58;75.55;100409.91;5060709;28;20220;-66
2021/10/15 05:26:40;;;;;;;22.63;19.50;;;;;;;13.54;75.61;100403.81;5042888;28;20535;-66
2021/10/15 05:29:06;;;;;;;21.00;18.80;;;;;;;13.27;76.42;100397.88;5060066;28;20180;-66
2021/10/15 05:31:31;;;;;;;21.10;18.93;;;;;;;13.66;75.36;100397.59;5060199;28;20170;-66
2021/10/15 05:33:56;;;;;;;21.33;18.97;;;;;;;13.23;76.87;100388.31;5059979;28;20224;-66
2021/10/15 05:36:21;;;;;;;22.70;20.13;;;;;;;13.30;76.55;100394.34;5059963;28;20197;-66
2021/10/15 05:38:47;;;;;;;22.73;19.77;;;;;;;13.68;75.40;100380.13;5060417;28;20246;-66
2021/10/15 05:41:13;;;;;;;21.73;19.07;;;;;;;13.52;75.31;100378.50;5059663;28;20166;-66
2021/10/15 05:43:39;;;;;;;21.40;19.40;;;;;;;13.39;75.94;100368.13;5061594;28;20181;-67
2021/10/15 05:46:04;;;;;;;25.63;19.43;;;;;;;13.60;74.85;100374.97;5045629;28;20395;-67
2021/10/15 05:48:29;;;;;;;21.40;18.40;;;;;;;13.70;74.96;100375.75;5045244;28;20177;-67
2021/10/15 05:50:55;;;;;;;22.23;19.93;;;;;;;13.58;75.47;100365.38;5063242;28;20181;-67
2021/10/15 05:53:21;;;;;;;19.50;17.50;;;;;;;13.42;75.81;100355.03;5059614;28;20320;-66
2021/10/15 05:58:49;;;;;;;20.70;18.50;;;;;;;13.24;76.99;100363.84;5060240;28;20443;-66
2021/10/15 06:01:14;;;;;;;23.47;20.97;;;;;;;13.26;77.84;100350.75;5058912;28;20436;-65
2021/10/15 06:03:42;;;;;;;27.80;20.67;;;;;;;13.73;76.24;100357.38;5059298;28;20724;-66
2021/10/15 06:14:28;;;;;;;21.53;19.03;;;;;;;13.62;77.22;100340.88;5059364;28;20658;-66
2021/10/15 06:17:06;;;;;;;23.30;21.03;;;;;;;13.21;79.69;100344.72;5059096;28;20685;-66
2021/10/15 06:19:41;;;;;;;32.90;21.13;;;;;;;13.42;78.61;100341.94;5043447;28;20845;-66
2021/10/15 06:22:07;;;;;;;22.27;19.57;;;;;;;13.19;79.93;100343.84;5058922;28;20420;-66
2021/10/15 06:24:32;;;;;;;25.23;21.30;;;;;;;13.09;80.17;100340.44;5059039;28;20469;-65
2021/10/15 06:26:57;;;;;;;23.17;20.20;;;;;;;13.18;79.85;100331.63;5058970;28;20174;-66
2021/10/15 06:29:22;;;;;;;23.23;20.77;;;;;;;13.02;79.95;100336.97;5059007;28;20447;-66
2021/10/15 06:31:48;;;;;;;24.00;21.70;;;;;;;12.95;80.61;100335.31;5059086;28;20166;-66
2021/10/15 06:34:13;;;;;;;23.57;21.03;;;;;;;13.09;81.12;100338.66;5059050;28;20177;-70
2021/10/15 06:36:38;;;;;;;24.30;21.67;;;;;;;13.13;80.40;100340.38;5041378;28;20180;-69
2021/10/15 06:39:04;;;;;;;23.43;20.93;;;;;;;13.18;80.71;100336.84;5059283;28;20529;-70
2021/10/15 06:41:29;;;;;;;23.63;21.43;;;;;;;13.04;81.54;100386.69;5058456;28;20550;-70
2021/10/15 06:43:55;;;;;;;20.63;18.47;;;;;;;13.63;80.17;100418.59;5058351;28;20170;-64
2021/10/15 06:46:21;;;;;;;19.70;15.70;;;;;;;14.40;76.14;100428.34;5059208;28;20192;-71
2021/10/15 06:48:47;;;;;;;17.53;13.73;;;;;;;14.73;74.39;100431.47;5058961;28;20431;-64
2021/10/15 06:51:12;;;;;;;11.80;10.10;;;;;;;14.07;76.16;100447.91;5059467;28;20408;-66
2021/10/15 06:53:37;;;;;;;12.10;9.40;;;;;;;15.05;72.48;100443.31;5059534;28;20431;-66
2021/10/15 06:56:02;;;;;;;7.27;6.53;;;;;;;14.30;74.12;100460.78;5058706;28;20170;-66
2021/10/15 06:58:28;;;;;;;6.87;5.13;;;;;;;14.49;73.33;100466.69;5058720;28;20166;-66
2021/10/15 07:00:54;;;;;;;7.20;5.13;;;;;;;15.36;71.03;100490.16;5058965;28;20166;-65
2021/10/15 07:03:19;;;;;;;4.67;3.90;;;;;;;14.94;71.07;100495.94;5040979;28;20208;-65
2021/10/15 07:05:46;;;;;;;5.00;4.23;;;;;;;15.49;69.57;100496.97;5058468;28;20208;-66
2021/10/15 07:08:11;;;;;;;3.67;3.37;;;;;;;15.09;72.92;100508.03;5058782;28;20487;-63
2021/10/15 07:10:37;;;;;;;8.00;3.43;;;;;;;15.09;71.87;100500.13;5056058;28;20568;-64
2021/10/15 07:13:03;;;;;;;4.30;3.67;;;;;;;14.51;72.63;100500.81;5048192;28;20181;-65
2021/10/15 07:15:28;;;;;;;4.20;3.47;;;;;;;14.39;73.05;100502.66;5050505;28;20198;-64
2021/10/15 07:17:53;;;;;;;6.73;3.50;;;;;;;15.31;69.51;100508.59;5038232;28;20170;-64
2021/10/15 07:20:19;;;;;;;3.07;2.63;;;;;;;16.02;66.89;100511.97;5051101;28;20185;-65
2021/10/15 07:22:44;;;;;;;3.00;2.67;;;;;;;14.45;71.71;100530.56;5058311;28;20165;-65
2021/10/15 07:25:10;;;;;;;3.50;3.07;;;;;;;14.92;71.25;100551.97;5057940;28;20216;-64
2021/10/15 07:27:36;;;;;;;3.07;2.60;;;;;;;15.02;70.64;100557.97;5055327;28;20253;-64
2021/10/15 07:30:04;;;;;;;4.00;3.40;;;;;;;16.14;68.05;100571.34;5038481;28;20408;-63
2021/10/15 07:32:30;;;;;;;3.33;3.03;;;;;;;16.17;67.07;100590.59;5038242;28;20822;-62
2021/10/15 07:34:55;;;;;;;5.30;4.53;;;;;;;15.91;66.73;100598.91;5038066;28;20479;-63
2021/10/15 07:37:20;;;;;;;4.90;2.90;;;;;;;16.09;66.80;100612.66;5038264;28;20536;-69
2021/10/15 07:39:46;;;;;;;3.47;3.00;;;;;;;15.47;66.42;100606.44;5038013;28;20173;-64
2021/10/15 07:42:11;;;;;;;4.20;3.07;;;;;;;14.46;69.69;100601.41;5037710;28;20173;-65
2021/10/15 07:44:36;;;;;;;4.50;2.90;;;;;;;14.76;70.10;100599.41;5040245;28;20205;-64
2021/10/15 07:47:02;;;;;;;4.47;2.07;;;;;;;13.99;72.13;100610.50;5057828;28;20544;-65
2021/10/15 07:49:27;;;;;;;2.60;2.17;;;;;;;13.93;71.59;100629.72;5057699;28;20177;-68
2021/10/15 07:51:52;;;;;;;4.63;2.43;;;;;;;14.32;69.74;100632.09;5056025;28;20232;-64
2021/10/15 07:54:18;;;;;;;3.60;2.50;;;;;;;14.62;67.03;100635.34;5057716;28;20216;-65
2021/10/15 07:56:43;;;;;;;2.67;2.07;;;;;;;13.64;68.60;100637.75;5040074;28;20602;-64
2021/10/15 07:59:09;;;;;;;4.57;2.20;;;;;;;14.14;71.26;100635.72;5057413;28;20174;-63
2021/10/15 08:01:34;;;;;;;3.30;2.30;;;;;;;13.89;70.86;100648.09;5040079;28;20162;-63
2021/10/15 08:03:59;;;;;;;4.83;2.53;;;;;;;13.99;70.11;100644.56;5057758;28;20428;-64
2021/10/15 08:06:25;;;;;;;6.43;5.20;;;;;;;14.01;67.42;100640.16;5057160;28;20543;-70
2021/10/15 08:08:51;;;;;;;5.73;3.50;;;;;;;13.48;69.22;100643.03;5057418;28;20418;-70
2021/10/15 08:11:17;;;;;;;4.67;2.37;;;;;;;13.02;70.81;100639.69;5057611;28;20407;-70
2021/10/15 08:13:43;;;;;;;4.47;2.63;;;;;;;12.89;72.68;100652.75;5040120;28;20632;-71
2021/10/15 08:16:08;;;;;;;4.77;2.90;;;;;;;12.56;74.45;100662.38;5057453;28;20424;-69
2021/10/15 08:18:33;;;;;;;4.33;3.43;;;;;;;12.49;74.42;100667.59;5057563;28;20193;-68
2021/10/15 08:20:58;;;;;;;3.80;2.10;;;;;;;12.53;73.77;100667.63;5057175;28;20174;-69
2021/10/15 08:23:25;;;;;;;3.73;3.00;;;;;;;12.58;74.55;100672.84;5057127;28;20174;-69
2021/10/15 08:25:50;;;;;;;5.10;3.37;;;;;;;12.71;74.51;100694.66;5043744;28;20251;-72
2021/10/15 08:28:16;;;;;;;4.47;2.80;;;;;;;12.37;74.97;100687.66;5061238;28;20482;-72
2021/10/15 08:30:41;;;;;;;4.37;2.87;;;;;;;12.43;75.08;100686.78;5043527;28;20178;-72
2021/10/15 08:33:07;;;;;;;6.03;2.63;;;;;;;12.25;75.77;100688.50;5061313;28;20188;-72
2021/10/15 08:35:32;;;;;;;4.60;3.00;;;;;;;12.34;76.57;100698.09;5043624;28;20185;-70
2021/10/15 08:37:57;;;;;;;6.40;2.77;;;;;;;12.49;75.87;100705.09;5060879;28;20174;-71
2021/10/15 08:40:23;;;;;;;6.33;3.60;;;;;;;12.87;74.91;100708.59;5043347;28;20169;-72
2021/10/15 08:42:52;;;;;;;3.13;2.83;;;;;;;12.85;75.03;100731.25;5060820;28;20193;-72
2021/10/15 08:45:25;;;;;;;4.20;3.23;;;;;;;12.39;77.78;100745.16;5060701;28;20201;-72
2021/10/15 08:47:50;;;;;;;3.27;2.63;;;;;;;12.37;77.50;100759.97;5060786;28;20431;-72
2021/10/15 08:50:16;;;;;;;5.83;3.90;;;;;;;12.53;77.30;100773.94;5060980;28;20798;-72
2021/10/15 08:52:41;;;;;;;3.53;2.63;;;;;;;12.63;76.85;100779.19;5060476;28;20497;-72
2021/10/15 08:55:07;;;;;;;3.77;2.77;;;;;;;13.00;74.47;100772.25;5061424;28;20530;-71
2021/10/15 08:57:32;;;;;;;9.57;2.90;;;;;;;12.67;75.77;100774.84;5061178;28;20185;-70
2021/10/15 08:59:57;;;;;;;3.10;2.43;;;;;;;12.46;76.46;100739.06;5063239;28;20201;-71
2021/10/15 09:02:23;;;;;;;7.60;2.90;;;;;;;12.56;75.99;100724.28;5044177;28;20531;-72
2021/10/15 09:04:53;;;;;;;5.40;3.40;;;;;;;12.40;76.36;100723.38;5062605;28;20212;-71
2021/10/15 09:07:20;;;;;;;4.00;3.03;;;;;;;12.16;76.91;100729.41;5061421;28;20165;-72
2021/10/15 09:09:46;;;;;;;7.20;3.17;;;;;;;12.54;75.62;100733.84;5060947;28;20423;-72
2021/10/15 09:12:14;;;;;;;7.37;3.73;;;;;;;12.33;75.41;100748.63;5060611;28;20426;-73
2021/10/15 09:14:40;;;;;;;8.00;3.27;;;;;;;12.42;75.64;100747.78;5060297;28;20494;-69
2021/10/15 09:17:08;;;;;;;7.20;3.40;;;;;;;12.51;76.11;100763.47;5060217;28;20494;-72
2021/10/15 09:19:35;;;;;;;5.53;3.50;;;;;;;12.41;76.01;100773.06;5060396;28;20439;-70
2021/10/15 09:22:16;;;;;;;6.73;3.53;;;;;;;12.78;75.07;100780.94;5059859;28;20394;-69
2021/10/15 09:24:55;;;;;;;8.20;4.20;;;;;;;12.96;74.25;100798.44;5060035;28;20478;-70
2021/10/15 09:27:36;;;;;;;6.33;4.87;;;;;;;13.11;73.45;100813.28;5042788;28;20500;-69
2021/10/15 09:30:31;;;;;;;5.90;3.30;;;;;;;12.91;74.87;100808.03;5044057;28;20436;-71
2021/10/15 09:33:01;;;;;;;11.50;7.53;;;;;;;13.07;74.69;100815.88;5059649;28;20818;-70
2021/10/15 09:35:29;;;;;;;6.20;4.77;;;;;;;13.17;74.58;100814.16;5061036;28;20780;-71
2021/10/15 09:38:00;;;;;;;6.83;4.37;;;;;;;13.11;74.42;100818.50;5042756;28;20577;-70
2021/10/15 09:40:26;;;;;;;8.00;3.83;;;;;;;12.90;75.61;100803.66;5060069;28;20399;-70
2021/10/15 09:42:59;;;;;;;5.67;3.30;;;;;;;12.73;76.12;100795.78;5060049;28;20426;-70
2021/10/15 09:45:34;;;;;;;6.97;3.60;;;;;;;12.79;75.63;100802.78;5059880;28;20292;-70
2021/10/15 09:48:02;;;;;;;5.60;3.90;;;;;;;12.91;75.67;100809.78;5060658;28;20423;-70
2021/10/15 09:50:30;;;;;;;9.30;4.40;;;;;;;13.35;74.17;100816.75;5061085;28;20843;-71
2021/10/15 09:53:00;;;;;;;9.43;4.23;;;;;;;13.26;74.46;100816.75;5060546;28;20456;-71
2021/10/15 09:55:40;;;;;;;6.17;3.43;;;;;;;13.09;74.91;100830.72;5060089;28;20383;-72
2021/10/15 09:58:09;;;;;;;8.87;4.20;;;;;;;13.28;74.66;100843.81;5059519;28;20398;-72
2021/10/15 10:00:35;;;;;;;5.63;3.63;;;;;;;14.47;70.29;100846.19;5042041;28;20505;-71
2021/10/15 10:03:01;;;;;;;6.40;3.40;;;;;;;16.53;63.35;100841.78;5058975;28;20465;-73
2021/10/15 10:05:27;;;;;;;6.33;3.50;;;;;;;17.15;61.02;100839.16;5059097;28;20209;-72
2021/10/15 10:07:53;;;;;;;4.90;3.17;;;;;;;17.45;61.79;100843.03;5059670;28;20411;-72
2021/10/15 10:10:21;;;;;;;6.70;2.97;;;;;;;18.40;57.61;100841.25;5059048;28;20169;-72
2021/10/15 10:12:47;;;;;;;7.43;3.77;;;;;;;19.15;55.10;100839.56;5059193;28;20505;-69
2021/10/15 10:15:16;;;;;;;6.80;3.47;;;;;;;18.24;56.89;100831.03;5059597;28;20447;-75
2021/10/15 10:17:46;;;;;;;5.27;3.10;;;;;;;18.38;57.80;100838.66;5059280;28;20427;-73
2021/10/15 10:20:17;;;;;;;4.63;3.00;;;;;;;19.03;53.39;100831.94;5042057;28;20428;-70
2021/10/15 10:23:06;;;;;;;6.90;3.70;;;;;;;18.67;53.96;100834.50;5059509;28;20522;-72
2021/10/15 10:25:33;;;;;;;7.30;3.50;;;;;;;19.52;52.41;100837.78;5033034;28;20472;-70
2021/10/15 10:28:17;;;;;;;9.37;3.63;;;;;;;19.10;51.73;100844.09;5058871;28;20507;-72
2021/10/15 10:30:47;;;;;;;10.60;3.77;;;;;;;19.19;51.13;100851.81;5041448;28;20686;-71
2021/10/15 10:33:12;;;;;;;7.67;3.57;;;;;;;20.03;50.07;100839.09;5058709;28;20420;-71
2021/10/15 10:35:38;;;;;;;11.07;4.00;;;;;;;19.19;50.65;100851.81;5058560;28;20431;-71
2021/10/15 10:38:19;;;;;;;7.80;3.70;;;;;;;18.95;50.53;100852.41;5058397;28;20468;-73
2021/10/15 10:41:04;;;;;;;6.87;3.43;;;;;;;18.87;51.63;100846.41;5058193;28;20199;-71
2021/10/15 10:43:31;;;;;;;9.57;3.97;;;;;;;18.89;52.07;100852.53;5058127;28;20473;-71
2021/10/15 10:46:08;;;;;;;8.90;4.13;;;;;;;18.70;52.78;100858.22;5040836;28;20472;-71
2021/10/15 10:48:53;;;;;;;7.50;3.90;;;;;;;19.55;51.00;100860.63;5057709;28;20439;-72
2021/10/15 10:51:20;;;;;;;6.40;3.40;;;;;;;18.12;52.98;100866.44;5057875;28;20990;-70
2021/10/15 10:53:57;;;;;;;8.47;4.23;;;;;;;19.34;52.48;100865.56;5057949;28;20420;-70
2021/10/15 10:56:39;;;;;;;7.03;3.50;;;;;;;19.48;51.50;100865.22;5058424;28;20399;-74
2021/10/15 10:59:25;;;;;;;12.73;4.00;;;;;;;20.14;48.67;100866.09;5058268;28;20412;-72
2021/10/15 11:02:15;;;;;;;8.50;4.77;;;;;;;20.22;47.74;100873.00;5057991;28;20794;-71
2021/10/15 11:04:40;;;;;;;7.50;3.73;;;;;;;19.60;48.87;100883.41;5057946;28;20868;-73
2021/10/15 11:07:20;;;;;;;8.90;3.87;;;;;;;18.73;52.60;100900.41;5058065;28;20479;-74
2021/10/15 11:10:00;;;;;;;6.40;3.60;;;;;;;18.42;53.13;100900.19;5057930;28;20212;-75
2021/10/15 11:12:28;;;;;;;6.50;3.73;;;;;;;17.56;56.96;100903.47;5057596;28;20420;-73
2021/10/15 11:14:56;;;;;;;10.23;4.13;;;;;;;16.82;59.22;100915.97;5057957;28;20460;-73
2021/10/15 11:17:28;;;;;;;7.47;3.90;;;;;;;16.58;60.66;100917.16;5057963;28;20440;-70
2021/10/15 11:20:12;;;;;;;10.37;3.90;;;;;;;17.11;60.45;100919.13;5040801;28;20682;-71
2021/10/15 11:22:39;;;;;;;9.70;4.20;;;;;;;17.81;56.30;100918.88;5058031;28;20416;-70
2021/10/15 11:25:09;;;;;;;10.90;4.40;;;;;;;17.55;56.37;100919.31;5040713;28;20505;-71